Time;durP1;ratioP1;P1;durP2;ratioP2;P2;SDS_P1;SDS_P2;PMS_P1;PMS_P2;Temp;Humidity;BMP_temperature;BMP_pressure;BME280_temperature;BME280_humidity;BME280_pressure;Samples;Min_cycle;Max_cycle;Signal;HPM_P1;HPM_P2
2023/07/29 00:00:43;;;;;;;1.37;0.80;;;;;23.50;99663.00;;;;2068903;28;20308;-68
2023/07/29 00:01:44;;;;;;;0.80;0.60;;;;;23.50;99661.00;;;;2061560;28;20285;-68
2023/07/29 00:02:44;;;;;;;0.80;0.50;;;;;23.50;99661.00;;;;2075399;28;20236;-68
2023/07/29 00:03:44;;;;;;;1.43;0.50;;;;;23.50;99657.00;;;;2066275;28;20254;-68
2023/07/29 00:04:45;;;;;;;0.80;0.60;;;;;23.50;99660.00;;;;2066308;28;21178;-68
2023/07/29 00:05:45;;;;;;;0.87;0.70;;;;;23.50;99653.00;;;;2066634;28;20589;-68
2023/07/29 00:06:45;;;;;;;1.00;0.70;;;;;23.50;99656.00;;;;2054519;28;20683;-68
2023/07/29 00:07:46;;;;;;;1.00;0.50;;;;;23.50;99661.00;;;;2074906;28;20924;-68
2023/07/29 00:08:46;;;;;;;0.80;0.60;;;;;23.50;99657.00;;;;2076805;28;20220;-68
2023/07/29 00:09:46;;;;;;;1.07;0.60;;;;;23.50;99656.00;;;;2073661;28;20214;-68
2023/07/29 00:10:47;;;;;;;0.70;0.50;;;;;23.50;99654.00;;;;2077017;28;20628;-68
2023/07/29 00:11:47;;;;;;;0.83;0.50;;;;;23.50;99657.00;;;;2058348;28;20238;-68
2023/07/29 00:12:47;;;;;;;0.70;0.50;;;;;23.50;99656.00;;;;2074030;28;20209;-68
2023/07/29 00:13:49;;;;;;;1.10;0.70;;;;;23.50;99647.00;;;;2076645;28;20578;-68
2023/07/29 00:14:50;;;;;;;0.80;0.60;;;;;23.50;99654.00;;;;2072535;28;20198;-68
2023/07/29 00:15:52;;;;;;;1.00;0.60;;;;;23.50;99651.00;;;;2070194;28;20683;-68
2023/07/29 00:16:53;;;;;;;1.13;0.60;;;;;23.50;99657.00;;;;2062755;28;20219;-68
2023/07/29 00:17:53;;;;;;;0.83;0.63;;;;;23.50;99656.00;;;;2073402;28;20901;-68
2023/07/29 00:18:53;;;;;;;1.07;0.60;;;;;23.50;99661.00;;;;2056837;28;20212;-68
2023/07/29 00:19:54;;;;;;;0.97;0.70;;;;;23.50;99667.00;;;;2069198;28;20207;-68
2023/07/29 00:20:54;;;;;;;0.90;0.53;;;;;23.50;99658.00;;;;2072935;28;20211;-68
2023/07/29 00:21:54;;;;;;;1.40;0.60;;;;;23.50;99658.00;;;;2059252;28;20218;-68
2023/07/29 00:22:55;;;;;;;0.83;0.60;;;;;23.50;99659.00;;;;2072765;28;20297;-68
2023/07/29 00:23:57;;;;;;;1.10;0.63;;;;;23.50;99656.00;;;;2067628;28;20207;-68
2023/07/29 00:24:59;;;;;;;0.80;0.70;;;;;23.50;99657.00;;;;2065571;28;20234;-68
2023/07/29 00:25:59;;;;;;;0.80;0.50;;;;;23.50;99653.00;;;;2072034;28;20725;-68
2023/07/29 00:26:59;;;;;;;0.97;0.70;;;;;23.50;99654.00;;;;2067739;28;20229;-68
2023/07/29 00:27:59;;;;;;;0.80;0.50;;;;;23.50;99654.00;;;;2073183;28;20220;-68
2023/07/29 00:29:00;;;;;;;0.90;0.60;;;;;23.50;99656.00;;;;2072369;28;20218;-68
2023/07/29 00:30:00;;;;;;;1.30;0.77;;;;;23.50;99652.00;;;;2070463;28;20229;-68
2023/07/29 00:31:02;;;;;;;0.83;0.60;;;;;23.50;99649.00;;;;2072308;28;20217;-68
2023/07/29 00:32:02;;;;;;;1.13;0.82;;;;;23.50;99645.00;;;;2055353;28;20573;-68
2023/07/29 00:33:03;;;;;;;0.80;0.50;;;;;23.50;99646.00;;;;2072010;28;20225;-68
2023/07/29 00:34:03;;;;;;;1.30;0.90;;;;;23.50;99644.00;;;;2070019;28;20226;-68
2023/07/29 00:35:04;;;;;;;0.80;0.50;;;;;23.50;99643.00;;;;2075211;28;20248;-68
2023/07/29 00:36:04;;;;;;;0.90;0.50;;;;;23.50;99640.00;;;;2070452;28;20704;-68
2023/07/29 00:37:05;;;;;;;1.10;0.70;;;;;23.50;99641.00;;;;2066267;28;20206;-68
2023/07/29 00:38:06;;;;;;;0.90;0.60;;;;;23.50;99640.00;;;;2067335;28;20289;-68
2023/07/29 00:39:06;;;;;;;1.17;0.90;;;;;23.50;99640.00;;;;2061471;28;20215;-68
2023/07/29 00:40:17;;;;;;;0.87;0.63;;;;;23.50;99634.00;;;;2063798;28;20249;-68
2023/07/29 00:41:18;;;;;;;1.35;0.70;;;;;23.50;99645.00;;;;2068318;28;20221;-68
2023/07/29 00:42:18;;;;;;;1.02;0.60;;;;;23.50;99644.00;;;;2057234;28;20203;-68
2023/07/29 00:43:19;;;;;;;0.93;0.60;;;;;23.50;99644.00;;;;2067377;28;20615;-68
2023/07/29 00:44:19;;;;;;;0.80;0.60;;;;;23.50;99642.00;;;;2072959;28;20587;-68
2023/07/29 00:45:19;;;;;;;0.90;0.60;;;;;23.50;99646.00;;;;2077340;28;20214;-68
2023/07/29 00:46:20;;;;;;;0.83;0.70;;;;;23.50;99637.00;;;;2072071;28;20637;-68
2023/07/29 00:47:20;;;;;;;0.97;0.70;;;;;23.50;99646.00;;;;2062513;28;20583;-68
2023/07/29 00:48:20;;;;;;;1.00;0.70;;;;;23.50;99642.00;;;;2061525;28;20211;-68
2023/07/29 00:49:21;;;;;;;1.00;0.73;;;;;23.50;99635.00;;;;2076352;28;20205;-68
2023/07/29 00:50:21;;;;;;;0.80;0.60;;;;;23.50;99644.00;;;;2069806;28;20210;-68
2023/07/29 00:51:21;;;;;;;0.70;0.50;;;;;23.50;99643.00;;;;2057247;28;20246;-68
2023/07/29 00:52:22;;;;;;;0.90;0.60;;;;;23.50;99636.00;;;;2046759;28;20219;-68
2023/07/29 00:53:22;;;;;;;0.93;0.73;;;;;23.50;99633.00;;;;2061634;28;20245;-68
2023/07/29 00:54:22;;;;;;;0.93;0.70;;;;;23.50;99637.00;;;;2079132;28;20209;-68
2023/07/29 00:55:23;;;;;;;1.03;0.67;;;;;23.50;99640.00;;;;2063202;28;20218;-68
2023/07/29 00:56:23;;;;;;;0.80;0.50;;;;;23.50;99633.00;;;;2048132;28;20239;-68
2023/07/29 00:57:25;;;;;;;0.80;0.50;;;;;23.50;99629.00;;;;2046719;28;20200;-68
2023/07/29 00:58:25;;;;;;;0.98;0.70;;;;;23.50;99626.00;;;;2062804;28;20230;-68
2023/07/29 00:59:28;;;;;;;0.83;0.60;;;;;23.50;99623.00;;;;2072752;28;20583;-68
2023/07/29 01:00:28;;;;;;;0.70;0.57;;;;;23.50;99628.00;;;;2073363;28;20206;-68
2023/07/29 01:01:29;;;;;;;0.70;0.50;;;;;23.50;99626.00;;;;2069136;28;20217;-68
2023/07/29 01:02:29;;;;;;;0.87;0.50;;;;;23.50;99624.00;;;;2058829;28;20207;-68
2023/07/29 01:03:30;;;;;;;0.70;0.50;;;;;23.50;99620.00;;;;2070542;28;20452;-68
2023/07/29 01:04:31;;;;;;;1.40;0.60;;;;;23.50;99616.00;;;;2062858;28;20206;-68
2023/07/29 01:05:54;;;;;;;0.82;0.50;;;;;23.50;99625.00;;;;2069294;28;20217;-68
2023/07/29 01:07:09;;;;;;;0.90;0.52;;;;;23.50;99613.00;;;;2054615;28;20678;-68
2023/07/29 01:08:22;;;;;;;0.93;0.60;;;;;23.50;99613.00;;;;2069430;28;20220;-68
2023/07/29 01:09:49;;;;;;;1.00;0.80;;;;;23.50;99610.00;;;;2064762;28;20215;-68
2023/07/29 01:11:07;;;;;;;0.90;0.70;;;;;23.50;99616.00;;;;2068270;28;20209;-68
2023/07/29 01:12:13;;;;;;;1.35;0.90;;;;;23.50;99615.00;;;;2056620;28;20217;-68
2023/07/29 01:13:26;;;;;;;1.15;0.60;;;;;23.50;99584.00;;;;2070802;28;20577;-68
2023/07/29 01:14:31;;;;;;;0.90;0.60;;;;;23.50;99612.00;;;;2050391;28;20227;-68
2023/07/29 01:15:40;;;;;;;0.93;0.60;;;;;23.50;99587.00;;;;2066293;28;20236;-68
2023/07/29 01:16:43;;;;;;;0.70;0.50;;;;;23.50;99618.00;;;;2059194;28;20210;-68
2023/07/29 01:17:48;;;;;;;0.80;0.60;;;;;23.50;99621.00;;;;2070950;28;20233;-68
2023/07/29 01:18:48;;;;;;;0.80;0.60;;;;;23.50;99618.00;;;;2075687;28;20677;-68
2023/07/29 01:20:00;;;;;;;0.90;0.53;;;;;23.50;99623.00;;;;2056390;28;20299;-68
2023/07/29 01:21:03;;;;;;;0.80;0.70;;;;;23.50;99615.00;;;;2065888;28;20646;-68
2023/07/29 01:22:03;;;;;;;0.90;0.60;;;;;23.50;99615.00;;;;2058131;28;20819;-68
2023/07/29 01:23:03;;;;;;;1.00;0.70;;;;;23.50;99622.00;;;;2061854;28;20226;-68
2023/07/29 01:24:04;;;;;;;0.90;0.50;;;;;23.50;99622.00;;;;2071580;28;20214;-68
2023/07/29 01:25:04;;;;;;;0.80;0.60;;;;;23.50;99612.00;;;;2065177;28;20207;-68
2023/07/29 01:26:05;;;;;;;1.20;0.63;;;;;23.50;99621.00;;;;2071364;28;20737;-68
2023/07/29 01:27:05;;;;;;;0.90;0.60;;;;;23.50;99609.00;;;;2055174;28;20273;-68
2023/07/29 01:28:06;;;;;;;0.80;0.50;;;;;23.50;99618.00;;;;2062269;28;20682;-68
2023/07/29 01:29:06;;;;;;;0.70;0.60;;;;;23.50;99621.00;;;;2068823;28;20666;-68
2023/07/29 01:30:07;;;;;;;1.00;0.60;;;;;23.50;99598.00;;;;2069123;28;20240;-68
2023/07/29 01:31:16;;;;;;;1.00;0.70;;;;;23.50;99616.00;;;;2070965;28;20218;-68
2023/07/29 01:32:28;;;;;;;0.80;0.50;;;;;23.50;99616.00;;;;2061174;28;20599;-68
2023/07/29 01:33:32;;;;;;;1.05;0.93;;;;;23.50;99621.00;;;;2075337;28;20241;-68
2023/07/29 01:34:38;;;;;;;0.90;0.55;;;;;23.50;99622.00;;;;2064890;28;20302;-68
2023/07/29 01:35:41;;;;;;;0.90;0.70;;;;;23.50;99612.00;;;;2069968;28;20361;-68
2023/07/29 01:36:41;;;;;;;0.90;0.60;;;;;23.50;99591.00;;;;2063753;28;20232;-68
2023/07/29 01:37:42;;;;;;;1.00;0.70;;;;;23.50;99613.00;;;;2066081;28;20756;-68
2023/07/29 01:38:42;;;;;;;0.90;0.50;;;;;23.50;99605.00;;;;2062123;28;20233;-68
2023/07/29 01:39:42;;;;;;;0.80;0.53;;;;;23.50;99608.00;;;;2066322;28;20214;-68
2023/07/29 01:40:43;;;;;;;0.70;0.40;;;;;23.50;99580.00;;;;2054844;28;20234;-68
2023/07/29 01:41:43;;;;;;;0.80;0.60;;;;;23.50;99575.00;;;;2039186;28;20223;-68
2023/07/29 01:42:45;;;;;;;0.83;0.60;;;;;23.50;99599.00;;;;2051418;28;20293;-68
2023/07/29 01:43:46;;;;;;;0.90;0.60;;;;;23.50;99599.00;;;;2069330;28;20241;-68
2023/07/29 01:44:46;;;;;;;0.80;0.50;;;;;23.50;99598.00;;;;2075691;28;20586;-68
2023/07/29 01:45:47;;;;;;;0.87;0.63;;;;;23.50;99598.00;;;;2066963;28;20461;-68
2023/07/29 01:46:47;;;;;;;1.27;0.60;;;;;23.50;99597.00;;;;2062400;28;20217;-68
2023/07/29 01:47:47;;;;;;;0.80;0.50;;;;;23.50;99604.00;;;;2071004;28;20264;-68
2023/07/29 01:48:47;;;;;;;0.70;0.50;;;;;23.50;99601.00;;;;2067495;28;20215;-68
2023/07/29 01:49:48;;;;;;;0.90;0.50;;;;;23.50;99607.00;;;;2068678;28;20287;-68
2023/07/29 01:50:48;;;;;;;0.80;0.50;;;;;23.50;99599.00;;;;2067117;28;20638;-68
2023/07/29 01:51:49;;;;;;;0.70;0.60;;;;;23.50;99610.00;;;;2057157;28;20670;-68
2023/07/29 01:52:49;;;;;;;0.80;0.50;;;;;23.50;99603.00;;;;2070906;28;20244;-68
2023/07/29 01:53:49;;;;;;;0.80;0.60;;;;;23.50;99606.00;;;;2075860;28;20213;-68
2023/07/29 01:54:50;;;;;;;1.10;0.70;;;;;23.50;99604.00;;;;2076008;28;20214;-68
2023/07/29 01:55:50;;;;;;;0.87;0.60;;;;;23.50;99600.00;;;;2067120;28;20215;-68
2023/07/29 01:56:51;;;;;;;0.80;0.57;;;;;23.50;99597.00;;;;2057801;28;20242;-68
2023/07/29 01:57:51;;;;;;;0.87;0.67;;;;;23.50;99595.00;;;;2070998;28;20221;-68
2023/07/29 01:58:52;;;;;;;0.70;0.50;;;;;23.50;99599.00;;;;2073500;28;20681;-68
2023/07/29 01:59:52;;;;;;;0.80;0.53;;;;;23.50;99593.00;;;;2074169;28;20237;-68
2023/07/29 02:00:52;;;;;;;0.87;0.50;;;;;23.50;99596.00;;;;2074171;28;20228;-68
2023/07/29 02:01:53;;;;;;;0.80;0.50;;;;;23.50;99595.00;;;;2058668;28;20224;-68
2023/07/29 02:02:53;;;;;;;0.73;0.50;;;;;23.50;99610.00;;;;2071634;28;20220;-68
2023/07/29 02:03:55;;;;;;;0.80;0.60;;;;;23.50;99603.00;;;;2067054;28;20215;-68
2023/07/29 02:04:55;;;;;;;1.10;0.80;;;;;23.50;99598.00;;;;2074843;28;20869;-68
2023/07/29 02:05:56;;;;;;;0.70;0.50;;;;;23.50;99604.00;;;;2074645;28;20223;-68
2023/07/29 02:06:56;;;;;;;1.00;0.60;;;;;23.50;99602.00;;;;2059414;28;20230;-68
2023/07/29 02:07:56;;;;;;;1.00;0.70;;;;;23.50;99602.00;;;;2070740;28;20222;-68
2023/07/29 02:08:57;;;;;;;1.13;0.83;;;;;23.50;99608.00;;;;2073806;28;20218;-68
2023/07/29 02:09:57;;;;;;;0.80;0.60;;;;;23.50;99601.00;;;;2066443;28;20216;-68
2023/07/29 02:10:57;;;;;;;0.80;0.60;;;;;23.50;99596.00;;;;2063729;28;20277;-68
2023/07/29 02:11:58;;;;;;;0.70;0.50;;;;;23.50;99595.00;;;;2065826;28;20225;-68
2023/07/29 02:12:58;;;;;;;0.90;0.57;;;;;23.50;99587.00;;;;2075719;28;20273;-68
2023/07/29 02:13:58;;;;;;;0.83;0.63;;;;;23.50;99585.00;;;;2072807;28;20218;-68
2023/07/29 02:14:59;;;;;;;0.80;0.70;;;;;23.50;99589.00;;;;2070940;28;20249;-68
2023/07/29 02:15:59;;;;;;;0.83;0.50;;;;;23.50;99577.00;;;;2069468;28;20671;-68
2023/07/29 02:16:59;;;;;;;1.00;0.57;;;;;23.50;99586.00;;;;2067619;28;20716;-68
2023/07/29 02:18:01;;;;;;;0.90;0.60;;;;;23.50;99576.00;;;;2075651;28;20237;-68
2023/07/29 02:19:02;;;;;;;0.98;0.65;;;;;23.50;99582.00;;;;2072426;28;20689;-68
2023/07/29 02:20:03;;;;;;;0.80;0.60;;;;;23.50;99577.00;;;;2078776;28;20209;-68
2023/07/29 02:21:04;;;;;;;0.70;0.50;;;;;23.50;99572.00;;;;2075420;28;20217;-69
2023/07/29 02:22:04;;;;;;;0.90;0.70;;;;;23.50;99579.00;;;;2067533;28;20238;-68
2023/07/29 02:23:05;;;;;;;0.97;0.80;;;;;23.50;99576.00;;;;2079845;28;20579;-68
2023/07/29 02:24:05;;;;;;;0.90;0.70;;;;;23.50;99573.00;;;;2076725;28;20212;-68
2023/07/29 02:25:06;;;;;;;0.90;0.70;;;;;23.50;99569.00;;;;2079122;28;20225;-68
2023/07/29 02:26:06;;;;;;;0.80;0.60;;;;;23.50;99571.00;;;;2074872;28;20256;-68
2023/07/29 02:27:06;;;;;;;0.77;0.60;;;;;23.50;99560.00;;;;2069137;28;20222;-68
2023/07/29 02:28:07;;;;;;;1.10;0.80;;;;;23.50;99571.00;;;;2072265;28;20210;-68
2023/07/29 02:29:07;;;;;;;1.00;0.67;;;;;23.50;99566.00;;;;2076005;28;20758;-68
2023/07/29 02:30:09;;;;;;;0.80;0.50;;;;;23.50;99561.00;;;;2066757;28;20709;-67
2023/07/29 02:31:16;;;;;;;0.93;0.55;;;;;23.50;99560.00;;;;2070430;28;20222;-68
2023/07/29 02:32:17;;;;;;;0.90;0.63;;;;;23.50;99570.00;;;;2066751;28;20805;-68
2023/07/29 02:33:17;;;;;;;0.90;0.60;;;;;23.50;99568.00;;;;2069773;28;20288;-68
2023/07/29 02:34:17;;;;;;;0.87;0.60;;;;;23.50;99557.00;;;;2074939;28;20246;-68
2023/07/29 02:35:18;;;;;;;0.70;0.50;;;;;23.50;99560.00;;;;2066336;28;20222;-68
2023/07/29 02:36:18;;;;;;;0.80;0.67;;;;;23.50;99525.00;;;;2063843;28;20588;-68
2023/07/29 02:37:18;;;;;;;0.90;0.70;;;;;23.50;99564.00;;;;2064058;28;20226;-68
2023/07/29 02:38:19;;;;;;;1.33;0.70;;;;;23.50;99569.00;;;;2072238;28;20233;-68
2023/07/29 02:39:19;;;;;;;1.67;0.50;;;;;23.50;99572.00;;;;2069727;28;20268;-68
2023/07/29 02:40:20;;;;;;;0.70;0.50;;;;;23.50;99573.00;;;;2071929;28;20226;-68
2023/07/29 02:41:21;;;;;;;1.45;0.80;;;;;23.50;99574.00;;;;2064938;28;20214;-68
2023/07/29 02:42:21;;;;;;;0.80;0.53;;;;;23.50;99577.00;;;;2059217;28;20214;-68
2023/07/29 02:43:21;;;;;;;0.70;0.60;;;;;23.50;99579.00;;;;2080097;28;20744;-68
2023/07/29 02:44:22;;;;;;;0.80;0.60;;;;;23.50;99577.00;;;;2063771;28;20671;-68
2023/07/29 02:45:22;;;;;;;0.90;0.60;;;;;23.50;99576.00;;;;2073436;28;20244;-68
2023/07/29 02:46:23;;;;;;;0.97;0.70;;;;;23.50;99577.00;;;;2063351;28;20214;-68
2023/07/29 02:47:23;;;;;;;0.80;0.60;;;;;23.50;99574.00;;;;2060854;28;20210;-68
2023/07/29 02:48:24;;;;;;;1.10;0.70;;;;;23.50;99575.00;;;;2080143;28;20583;-68
2023/07/29 02:49:25;;;;;;;0.77;0.50;;;;;23.50;99577.00;;;;2072666;28;20250;-68
2023/07/29 02:50:25;;;;;;;0.80;0.53;;;;;23.50;99570.00;;;;2067941;28;20210;-68
2023/07/29 02:51:25;;;;;;;0.90;0.73;;;;;23.50;99574.00;;;;2079987;28;21564;-68
2023/07/29 02:52:26;;;;;;;0.97;0.60;;;;;23.50;99567.00;;;;2057290;28;20269;-68
2023/07/29 02:53:26;;;;;;;1.07;0.70;;;;;23.50;99563.00;;;;2067965;28;20206;-68
2023/07/29 02:54:26;;;;;;;0.90;0.70;;;;;23.50;99565.00;;;;2076839;28;20205;-68
2023/07/29 02:55:27;;;;;;;0.77;0.50;;;;;23.50;99561.00;;;;2070977;28;20686;-68
2023/07/29 02:56:27;;;;;;;0.70;0.50;;;;;23.50;99569.00;;;;2080026;28;20213;-68
2023/07/29 02:57:28;;;;;;;0.90;0.70;;;;;23.50;99569.00;;;;2061163;28;20206;-68
2023/07/29 02:58:29;;;;;;;1.00;0.60;;;;;23.50;99573.00;;;;2071847;28;20780;-68
2023/07/29 02:59:29;;;;;;;0.70;0.50;;;;;23.50;99571.00;;;;2074319;28;20697;-68
2023/07/29 03:00:31;;;;;;;0.70;0.50;;;;;23.50;99570.00;;;;2072224;28;20784;-68
2023/07/29 03:01:31;;;;;;;0.70;0.50;;;;;23.50;99566.00;;;;2073260;28;20210;-69
2023/07/29 03:02:32;;;;;;;0.70;0.50;;;;;23.50;99565.00;;;;2068684;28;20221;-68
2023/07/29 03:03:32;;;;;;;0.90;0.63;;;;;23.50;99578.00;;;;2075853;28;20226;-68
2023/07/29 03:04:32;;;;;;;0.90;0.60;;;;;23.50;99576.00;;;;2078976;28;20232;-68
2023/07/29 03:05:33;;;;;;;0.70;0.50;;;;;23.50;99577.00;;;;2071879;28;20268;-68
2023/07/29 03:06:33;;;;;;;1.00;0.60;;;;;23.50;99583.00;;;;2069562;28;20222;-68
2023/07/29 03:07:34;;;;;;;0.97;0.60;;;;;23.50;99588.00;;;;2073378;28;20258;-68
2023/07/29 03:08:34;;;;;;;0.80;0.60;;;;;23.50;99588.00;;;;2072023;28;20218;-68
2023/07/29 03:09:35;;;;;;;0.80;0.60;;;;;23.50;99589.00;;;;2065573;28;20688;-68
2023/07/29 03:10:36;;;;;;;1.30;0.60;;;;;23.50;99591.00;;;;2063473;28;20239;-68
2023/07/29 03:11:36;;;;;;;0.90;0.52;;;;;23.50;99591.00;;;;2051968;28;20218;-68
2023/07/29 03:12:36;;;;;;;0.70;0.43;;;;;23.50;99593.00;;;;2073435;28;20218;-68
2023/07/29 03:13:37;;;;;;;1.00;0.67;;;;;23.50;99590.00;;;;2070413;28;20240;-68
2023/07/29 03:14:37;;;;;;;0.90;0.50;;;;;23.50;99586.00;;;;2064626;28;20218;-68
2023/07/29 03:15:38;;;;;;;1.10;0.60;;;;;23.50;99593.00;;;;2069760;28;20218;-68
2023/07/29 03:16:38;;;;;;;1.00;0.60;;;;;23.50;99590.00;;;;2059541;28;20250;-68
2023/07/29 03:17:38;;;;;;;0.70;0.50;;;;;23.50;99589.00;;;;2073097;28;20696;-68
2023/07/29 03:18:39;;;;;;;0.70;0.50;;;;;23.50;99582.00;;;;2076925;28;20240;-68
2023/07/29 03:19:39;;;;;;;0.70;0.50;;;;;23.50;99584.00;;;;2069005;28;20301;-68
2023/07/29 03:20:40;;;;;;;1.00;0.50;;;;;23.50;99586.00;;;;2076574;28;20240;-68
2023/07/29 03:21:40;;;;;;;1.10;0.80;;;;;23.50;99584.00;;;;2059151;28;20222;-68
2023/07/29 03:22:40;;;;;;;0.70;0.50;;;;;23.50;99590.00;;;;2073858;28;20241;-68
2023/07/29 03:23:41;;;;;;;0.93;0.60;;;;;23.50;99580.00;;;;2079177;28;20291;-68
2023/07/29 03:24:42;;;;;;;1.10;0.90;;;;;23.50;99583.00;;;;2071741;28;20214;-68
2023/07/29 03:25:42;;;;;;;0.80;0.50;;;;;23.50;99577.00;;;;2072842;28;20223;-68
2023/07/29 03:26:43;;;;;;;0.80;0.50;;;;;23.50;99578.00;;;;2063558;28;20569;-68
2023/07/29 03:27:43;;;;;;;0.70;0.60;;;;;23.50;99577.00;;;;2075581;28;20563;-68
2023/07/29 03:28:43;;;;;;;1.10;0.60;;;;;23.50;99575.00;;;;2071523;28;20616;-68
2023/07/29 03:29:44;;;;;;;1.00;0.60;;;;;23.50;99581.00;;;;2072325;28;20702;-68
2023/07/29 03:30:44;;;;;;;1.07;0.57;;;;;23.50;99576.00;;;;2071961;28;20556;-68
2023/07/29 03:31:44;;;;;;;0.87;0.53;;;;;23.50;99577.00;;;;2058909;28;20304;-68
2023/07/29 03:32:45;;;;;;;0.90;0.70;;;;;23.50;99575.00;;;;2061635;28;20214;-68
2023/07/29 03:33:45;;;;;;;0.70;0.40;;;;;23.50;99586.00;;;;2068525;28;20571;-68
2023/07/29 03:34:46;;;;;;;0.80;0.60;;;;;23.50;99578.00;;;;2074730;28;20214;-68
2023/07/29 03:35:46;;;;;;;0.70;0.60;;;;;23.50;99580.00;;;;2076747;28;20218;-68
2023/07/29 03:36:47;;;;;;;0.80;0.60;;;;;23.50;99586.00;;;;2060145;28;20218;-68
2023/07/29 03:37:48;;;;;;;1.15;0.82;;;;;23.50;99585.00;;;;2074334;28;20206;-68
2023/07/29 03:38:48;;;;;;;0.90;0.60;;;;;23.50;99581.00;;;;2072110;28;20224;-68
2023/07/29 03:39:48;;;;;;;1.00;0.60;;;;;23.50;99582.00;;;;2070386;28;20214;-68
2023/07/29 03:40:49;;;;;;;0.80;0.60;;;;;23.50;99572.00;;;;2074980;28;20206;-68
2023/07/29 03:41:49;;;;;;;1.30;0.50;;;;;23.50;99578.00;;;;2064656;28;20203;-68
2023/07/29 03:42:49;;;;;;;0.80;0.60;;;;;23.50;99579.00;;;;2072060;28;20229;-68
2023/07/29 03:43:50;;;;;;;0.80;0.60;;;;;23.50;99571.00;;;;2074166;28;20681;-68
2023/07/29 03:44:50;;;;;;;0.90;0.50;;;;;23.50;99576.00;;;;2076265;28;20234;-68
2023/07/29 03:45:50;;;;;;;0.90;0.60;;;;;23.50;99577.00;;;;2073597;28;20760;-68
2023/07/29 03:46:51;;;;;;;0.93;0.50;;;;;23.50;99576.00;;;;2059421;28;20305;-68
2023/07/29 03:47:51;;;;;;;0.70;0.40;;;;;23.50;99569.00;;;;2073187;28;20230;-68
2023/07/29 03:48:51;;;;;;;0.80;0.40;;;;;23.50;99572.00;;;;2075701;28;20225;-68
2023/07/29 03:49:52;;;;;;;0.90;0.60;;;;;23.50;99573.00;;;;2068152;28;20330;-68
2023/07/29 03:50:52;;;;;;;0.70;0.40;;;;;23.50;99573.00;;;;2074470;28;20209;-68
2023/07/29 03:51:52;;;;;;;0.90;0.60;;;;;23.50;99569.00;;;;2062562;28;20233;-68
2023/07/29 03:52:53;;;;;;;0.80;0.50;;;;;23.50;99568.00;;;;2068926;28;20215;-68
2023/07/29 03:53:53;;;;;;;0.70;0.50;;;;;23.50;99570.00;;;;2070226;28;20224;-68
2023/07/29 03:54:53;;;;;;;0.70;0.60;;;;;23.50;99568.00;;;;2069678;28;20276;-68
2023/07/29 03:55:54;;;;;;;0.97;0.70;;;;;23.50;99556.00;;;;2074895;28;20263;-68
2023/07/29 03:56:54;;;;;;;0.77;0.57;;;;;23.50;99557.00;;;;2056994;28;20238;-68
2023/07/29 03:57:54;;;;;;;0.77;0.50;;;;;23.50;99552.00;;;;2070925;28;20677;-68
2023/07/29 03:59:02;;;;;;;1.03;0.70;;;;;23.50;99556.00;;;;2075406;28;20233;-68
2023/07/29 04:00:03;;;;;;;0.80;0.60;;;;;23.50;99552.00;;;;2070166;28;20704;-68
2023/07/29 04:01:04;;;;;;;1.20;0.50;;;;;23.50;99547.00;;;;2069645;28;20297;-68
2023/07/29 04:02:04;;;;;;;0.80;0.60;;;;;23.50;99543.00;;;;2064832;28;20638;-68
2023/07/29 04:03:05;;;;;;;0.70;0.43;;;;;23.50;99553.00;;;;2078061;28;20213;-68
2023/07/29 04:04:05;;;;;;;0.80;0.50;;;;;23.50;99565.00;;;;2076881;28;20221;-68
2023/07/29 04:05:08;;;;;;;0.90;0.60;;;;;23.50;99530.00;;;;2072928;28;20214;-68
2023/07/29 04:06:08;;;;;;;0.77;0.50;;;;;23.50;99564.00;;;;2072203;28;20323;-68
2023/07/29 04:07:08;;;;;;;0.90;0.60;;;;;23.50;99549.00;;;;2052661;28;20712;-68
2023/07/29 04:08:09;;;;;;;0.90;0.70;;;;;23.50;99548.00;;;;2064499;28;20215;-68
2023/07/29 04:09:10;;;;;;;0.60;0.40;;;;;23.50;99546.00;;;;2065602;28;20753;-68
2023/07/29 04:10:10;;;;;;;0.90;0.50;;;;;23.50;99493.00;;;;2065112;28;20486;-68
2023/07/29 04:11:10;;;;;;;0.90;0.60;;;;;23.50;99538.00;;;;2067469;28;20717;-68
2023/07/29 04:12:11;;;;;;;1.00;0.60;;;;;23.50;99526.00;;;;2053031;28;20708;-68
2023/07/29 04:13:11;;;;;;;0.90;0.60;;;;;23.50;99543.00;;;;2062654;28;20230;-68
2023/07/29 04:14:11;;;;;;;0.80;0.50;;;;;23.50;99552.00;;;;2072803;28;20872;-68
2023/07/29 04:15:14;;;;;;;0.80;0.60;;;;;23.50;99538.00;;;;2075109;28;20220;-68
2023/07/29 04:16:15;;;;;;;0.80;0.60;;;;;23.50;99549.00;;;;2073411;28;20202;-68
2023/07/29 04:17:15;;;;;;;0.90;0.60;;;;;23.50;99557.00;;;;2064066;28;20298;-68
2023/07/29 04:18:16;;;;;;;1.07;0.70;;;;;23.50;99564.00;;;;2066323;28;20630;-68
2023/07/29 04:19:16;;;;;;;2.97;0.70;;;;;23.50;99544.00;;;;2069580;28;20674;-68
2023/07/29 04:20:16;;;;;;;0.90;0.67;;;;;23.50;99569.00;;;;2070098;28;20599;-68
2023/07/29 04:21:17;;;;;;;0.87;0.70;;;;;23.50;99544.00;;;;2070365;28;20594;-68
2023/07/29 04:22:17;;;;;;;0.70;0.60;;;;;23.50;99555.00;;;;2062180;28;20232;-68
2023/07/29 04:23:17;;;;;;;1.30;0.70;;;;;23.50;99556.00;;;;2067082;28;20285;-68
2023/07/29 04:24:20;;;;;;;0.90;0.67;;;;;23.50;99551.00;;;;2069446;28;20215;-68
2023/07/29 04:25:20;;;;;;;0.80;0.70;;;;;23.50;99544.00;;;;2071288;28;20225;-68
2023/07/29 04:26:20;;;;;;;1.03;0.60;;;;;23.50;99548.00;;;;2071782;28;20220;-68
2023/07/29 04:27:20;;;;;;;0.77;0.50;;;;;23.50;99554.00;;;;2053450;28;20226;-68
2023/07/29 04:28:21;;;;;;;0.97;0.87;;;;;23.50;99563.00;;;;2060331;28;20229;-68
2023/07/29 04:29:22;;;;;;;0.70;0.40;;;;;23.50;99551.00;;;;2072865;28;20218;-68
2023/07/29 04:30:23;;;;;;;1.00;0.60;;;;;23.40;99546.00;;;;2078236;28;20233;-68
2023/07/29 04:31:23;;;;;;;1.30;0.70;;;;;23.50;99557.00;;;;2070631;28;20225;-68
2023/07/29 04:32:24;;;;;;;0.80;0.50;;;;;23.50;99563.00;;;;2061430;28;20229;-68
2023/07/29 04:33:24;;;;;;;1.00;0.70;;;;;23.50;99572.00;;;;2069180;28;20233;-68
2023/07/29 04:34:25;;;;;;;1.40;0.63;;;;;23.50;99575.00;;;;2064473;28;20726;-68
2023/07/29 04:35:25;;;;;;;0.77;0.40;;;;;23.50;99574.00;;;;2063692;28;20706;-68
2023/07/29 04:36:26;;;;;;;0.70;0.50;;;;;23.50;99578.00;;;;2070307;28;20988;-68
2023/07/29 04:37:26;;;;;;;0.80;0.60;;;;;23.50;99590.00;;;;2058271;28;20210;-68
2023/07/29 04:38:33;;;;;;;0.90;0.60;;;;;23.50;99592.00;;;;2070815;28;20292;-68
2023/07/29 04:39:33;;;;;;;0.80;0.60;;;;;23.50;99585.00;;;;2071671;28;20221;-68
2023/07/29 04:40:33;;;;;;;1.47;0.60;;;;;23.50;99592.00;;;;2069725;28;20309;-68
2023/07/29 04:41:34;;;;;;;0.70;0.50;;;;;23.50;99585.00;;;;2078943;28;20304;-68
2023/07/29 04:42:36;;;;;;;0.80;0.60;;;;;23.50;99588.00;;;;2059000;28;20276;-68
2023/07/29 04:43:36;;;;;;;1.00;0.50;;;;;23.50;99585.00;;;;2069563;28;20229;-68
2023/07/29 04:44:37;;;;;;;0.80;0.50;;;;;23.50;99580.00;;;;2064036;28;20690;-68
2023/07/29 04:45:42;;;;;;;1.00;0.70;;;;;23.50;99582.00;;;;2074030;28;20718;-68
2023/07/29 04:46:43;;;;;;;1.15;0.65;;;;;23.50;99589.00;;;;2064508;28;20225;-68
2023/07/29 04:47:43;;;;;;;0.90;0.60;;;;;23.50;99583.00;;;;2056742;28;20956;-68
2023/07/29 04:48:43;;;;;;;1.07;0.70;;;;;23.50;99589.00;;;;2064719;28;20281;-68
2023/07/29 04:49:44;;;;;;;0.93;0.60;;;;;23.50;99593.00;;;;2076476;28;20210;-68
2023/07/29 04:50:44;;;;;;;0.90;0.63;;;;;23.50;99599.00;;;;2066653;28;20226;-68
2023/07/29 04:51:44;;;;;;;0.77;0.53;;;;;23.50;99608.00;;;;2062581;28;20587;-68
2023/07/29 04:52:44;;;;;;;0.90;0.70;;;;;23.50;99610.00;;;;2078013;28;20698;-68
2023/07/29 04:53:45;;;;;;;1.20;0.60;;;;;23.50;99617.00;;;;2078625;28;20675;-68
2023/07/29 04:54:45;;;;;;;1.07;0.60;;;;;23.50;99614.00;;;;2077285;28;20217;-68
2023/07/29 04:55:46;;;;;;;0.70;0.57;;;;;23.50;99612.00;;;;2071776;28;20226;-68
2023/07/29 04:56:46;;;;;;;1.30;0.70;;;;;23.50;99613.00;;;;2064796;28;20214;-67
2023/07/29 04:57:46;;;;;;;0.80;0.50;;;;;23.50;99614.00;;;;2076030;28;20209;-67
2023/07/29 04:58:47;;;;;;;1.00;0.80;;;;;23.50;99613.00;;;;2077348;28;20221;-67
2023/07/29 04:59:47;;;;;;;1.00;0.63;;;;;23.50;99613.00;;;;2068413;28;20218;-67
2023/07/29 05:00:47;;;;;;;0.90;0.60;;;;;23.50;99616.00;;;;2070571;28;20249;-67
2023/07/29 05:01:48;;;;;;;0.80;0.60;;;;;23.50;99618.00;;;;2062289;28;20214;-67
2023/07/29 05:02:48;;;;;;;1.00;0.80;;;;;23.50;99621.00;;;;2070434;28;20231;-67
2023/07/29 05:03:48;;;;;;;0.77;0.50;;;;;23.50;99615.00;;;;2072300;28;20234;-67
2023/07/29 05:04:49;;;;;;;3.37;0.70;;;;;23.50;99617.00;;;;2074194;28;20207;-67
2023/07/29 05:05:51;;;;;;;0.90;0.70;;;;;23.50;99621.00;;;;2069579;28;20678;-67
2023/07/29 05:06:51;;;;;;;0.80;0.60;;;;;23.50;99607.00;;;;2063945;28;20209;-68